Time;durP1;ratioP1;P1;durP2;ratioP2;P2;SDS_P1;SDS_P2;PMS_P1;PMS_P2;Temp;Humidity;BMP_temperature;BMP_pressure;BME280_temperature;BME280_humidity;BME280_pressure;Samples;Min_cycle;Max_cycle;Signal;HPM_P1;HPM_P2
2023/09/29 00:00:49;;;;;;;17.65;6.97;;;15.70;99.90;;;;;;5063915;28;20079;-66
2023/09/29 00:03:15;;;;;;;16.92;6.90;;;15.70;99.90;;;;;;5053093;28;20087;-65
2023/09/29 00:05:44;;;;;;;13.00;6.13;;;15.70;99.90;;;;;;5053602;28;20049;-66
2023/09/29 00:08:15;;;;;;;14.50;6.03;;;15.70;99.90;;;;;;5053356;28;20041;-65
2023/09/29 00:10:41;;;;;;;15.68;6.03;;;15.70;99.90;;;;;;5063791;28;20436;-65
2023/09/29 00:13:07;;;;;;;16.10;6.10;;;15.70;99.90;;;;;;5073452;28;20123;-65
2023/09/29 00:15:33;;;;;;;18.85;7.25;;;15.70;99.90;;;;;;5073409;28;20398;-65
2023/09/29 00:18:00;;;;;;;12.48;6.05;;;15.70;99.90;;;;;;5072889;28;20111;-66
2023/09/29 00:20:26;;;;;;;15.90;5.75;;;15.70;99.90;;;;;;5056643;28;20044;-66
2023/09/29 00:22:57;;;;;;;14.63;5.85;;;15.70;99.90;;;;;;5071492;28;20086;-65
2023/09/29 00:25:23;;;;;;;16.10;6.72;;;15.70;99.90;;;;;;5055903;28;20064;-66
2023/09/29 00:27:50;;;;;;;17.60;6.07;;;15.70;99.90;;;;;;5074221;28;20109;-65
2023/09/29 00:30:16;;;;;;;18.10;6.68;;;15.70;99.90;;;;;;5056715;28;20068;-66
2023/09/29 00:32:50;;;;;;;13.73;6.18;;;15.70;99.90;;;;;;5055734;28;20050;-66
2023/09/29 00:35:27;;;;;;;16.98;5.38;;;15.70;99.90;;;;;;5058456;28;20080;-65
2023/09/29 00:37:58;;;;;;;16.42;6.70;;;15.70;99.90;;;;;;5053848;28;20045;-66
2023/09/29 00:40:25;;;;;;;17.50;6.15;;;15.70;99.90;;;;;;5073611;28;20502;-65
2023/09/29 00:42:54;;;;;;;17.65;6.65;;;15.70;99.90;;;;;;5072687;28;20048;-65
2023/09/29 00:45:23;;;;;;;17.00;6.72;;;15.70;99.90;;;;;;5072027;28;20044;-66
2023/09/29 00:47:51;;;;;;;15.68;6.45;;;15.70;99.90;;;;;;5072952;28;20048;-66
2023/09/29 00:50:21;;;;;;;13.75;6.25;;;15.70;99.90;;;;;;5055897;28;20091;-65
2023/09/29 00:52:49;;;;;;;14.75;6.05;;;15.70;99.90;;;;;;5039742;28;20498;-66
2023/09/29 00:55:22;;;;;;;15.27;6.35;;;15.70;99.90;;;;;;5053541;28;20074;-65
2023/09/29 00:57:48;;;;;;;13.90;5.10;;;15.60;99.90;;;;;;5035935;28;20550;-65
2023/09/29 01:00:21;;;;;;;18.20;5.97;;;15.70;99.90;;;;;;5085683;28;20167;-65
2023/09/29 01:02:50;;;;;;;17.48;6.07;;;15.70;99.90;;;;;;5052360;28;20120;-65
2023/09/29 01:05:16;;;;;;;16.30;5.68;;;15.70;99.90;;;;;;5052438;28;20045;-65
2023/09/29 01:07:42;;;;;;;13.43;5.40;;;15.70;99.90;;;;;;5067666;28;20047;-66
2023/09/29 01:10:10;;;;;;;16.40;5.18;;;15.70;99.90;;;;;;5073095;28;20132;-65
2023/09/29 01:12:37;;;;;;;16.40;5.80;;;15.60;99.90;;;;;;5073642;28;20041;-65
2023/09/29 01:15:05;;;;;;;15.68;5.53;;;15.60;99.90;;;;;;5071435;28;20564;-66
2023/09/29 01:17:31;;;;;;;15.77;6.32;;;15.60;99.90;;;;;;5072182;28;20386;-66
2023/09/29 01:19:57;;;;;;;15.40;5.60;;;15.60;99.90;;;;;;5072295;28;20043;-66
2023/09/29 01:22:22;;;;;;;12.90;4.68;;;15.70;99.90;;;;;;5072561;28;20119;-66
2023/09/29 01:24:48;;;;;;;16.90;5.25;;;15.60;99.90;;;;;;5072173;28;20119;-65
2023/09/29 01:27:14;;;;;;;14.90;5.38;;;15.60;99.90;;;;;;5071640;28;20041;-66
2023/09/29 01:29:41;;;;;;;16.30;5.50;;;15.60;99.90;;;;;;5068030;28;20098;-66
2023/09/29 01:32:11;;;;;;;16.52;5.53;;;15.60;99.90;;;;;;5052106;28;20041;-66
2023/09/29 01:34:37;;;;;;;13.77;5.20;;;15.70;99.90;;;;;;5050846;28;20053;-66
2023/09/29 01:37:03;;;;;;;17.02;5.85;;;15.70;99.90;;;;;;5045560;28;20094;-66
2023/09/29 01:39:30;;;;;;;15.07;5.32;;;15.70;99.90;;;;;;5062552;28;20037;-66
2023/09/29 01:41:56;;;;;;;13.05;5.57;;;15.60;99.90;;;;;;5071156;28;20481;-66
2023/09/29 01:44:22;;;;;;;15.63;5.88;;;15.60;99.90;;;;;;5071647;28;20127;-65
2023/09/29 01:46:49;;;;;;;18.23;4.93;;;15.60;99.90;;;;;;5064468;28;20044;-66
2023/09/29 01:49:15;;;;;;;18.42;6.18;;;15.60;99.90;;;;;;5050514;28;20065;-65
2023/09/29 01:51:44;;;;;;;18.10;5.40;;;15.60;99.90;;;;;;5052426;28;20060;-65
2023/09/29 01:54:10;;;;;;;17.67;5.82;;;15.70;99.90;;;;;;5051382;28;20056;-65
2023/09/29 01:56:36;;;;;;;14.23;5.28;;;15.70;99.90;;;;;;5050781;28;20045;-65
2023/09/29 01:59:02;;;;;;;19.38;5.53;;;15.70;99.90;;;;;;5053097;28;20040;-65
2023/09/29 02:01:29;;;;;;;18.20;5.72;;;15.70;99.90;;;;;;5053344;28;20106;-66
2023/09/29 02:03:55;;;;;;;14.80;5.68;;;15.70;99.90;;;;;;5050971;28;20496;-65
2023/09/29 02:06:21;;;;;;;11.40;5.10;;;15.70;99.90;;;;;;5050505;28;20032;-65
2023/09/29 02:08:46;;;;;;;16.23;5.28;;;15.80;99.90;;;;;;5052419;28;20044;-65
2023/09/29 02:11:12;;;;;;;16.58;5.70;;;15.80;99.90;;;;;;5050531;28;20040;-66
2023/09/29 02:13:38;;;;;;;13.82;5.60;;;15.80;99.90;;;;;;5051070;28;20083;-66
2023/09/29 02:16:15;;;;;;;11.60;5.22;;;15.80;99.90;;;;;;5063704;28;20051;-66
2023/09/29 02:18:41;;;;;;;16.55;6.10;;;15.80;99.90;;;;;;5070241;28;20044;-66
2023/09/29 02:21:07;;;;;;;14.57;5.47;;;15.80;99.90;;;;;;5072292;28;20082;-66
2023/09/29 02:23:33;;;;;;;15.38;5.55;;;15.80;99.90;;;;;;5070078;28;20044;-65
2023/09/29 02:26:00;;;;;;;13.82;4.85;;;15.80;99.90;;;;;;5070613;28;20052;-66
2023/09/29 02:28:30;;;;;;;15.18;4.70;;;15.80;99.90;;;;;;5052170;28;20086;-66
2023/09/29 02:30:57;;;;;;;11.18;4.55;;;15.90;99.90;;;;;;5067132;28;20047;-66
2023/09/29 02:33:24;;;;;;;12.63;4.20;;;15.90;99.90;;;;;;5050785;28;20060;-65
2023/09/29 02:35:50;;;;;;;12.00;4.55;;;15.90;99.90;;;;;;5050812;28;20067;-65
2023/09/29 02:38:16;;;;;;;12.82;4.68;;;15.90;99.90;;;;;;5050347;28;20049;-65
2023/09/29 02:40:42;;;;;;;15.27;5.30;;;15.90;99.90;;;;;;5065321;28;20036;-65
2023/09/29 02:43:09;;;;;;;16.30;5.05;;;15.90;99.90;;;;;;5070630;28;20473;-66
2023/09/29 02:45:37;;;;;;;10.38;4.97;;;15.90;99.90;;;;;;5071172;28;20048;-65
2023/09/29 02:48:03;;;;;;;12.52;4.82;;;15.90;99.90;;;;;;5070923;28;20398;-66
2023/09/29 02:50:30;;;;;;;12.80;5.00;;;15.90;99.90;;;;;;5052688;28;20058;-65
2023/09/29 02:52:56;;;;;;;9.80;4.45;;;15.90;99.90;;;;;;5054685;28;20053;-65
2023/09/29 02:55:22;;;;;;;12.45;4.38;;;15.90;99.90;;;;;;5050553;28;20219;-65
2023/09/29 02:57:48;;;;;;;9.55;4.20;;;15.90;99.90;;;;;;5050506;28;20048;-65
2023/09/29 03:00:26;;;;;;;13.20;4.85;;;15.90;99.90;;;;;;5066106;28;20037;-65
2023/09/29 03:02:52;;;;;;;13.63;5.38;;;15.90;99.90;;;;;;5057953;28;20053;-65
2023/09/29 03:05:21;;;;;;;17.80;5.35;;;15.90;99.90;;;;;;5051080;28;20045;-66
2023/09/29 03:07:47;;;;;;;16.48;5.40;;;15.90;99.90;;;;;;5049657;28;20124;-65
2023/09/29 03:10:14;;;;;;;13.98;4.57;;;15.90;99.90;;;;;;5050331;28;20048;-66
2023/09/29 03:12:40;;;;;;;17.88;5.25;;;15.90;99.90;;;;;;5050567;28;20049;-66
2023/09/29 03:15:09;;;;;;;17.05;4.38;;;16.00;99.90;;;;;;5054293;28;20080;-66
2023/09/29 03:17:34;;;;;;;11.95;3.97;;;16.00;99.90;;;;;;5050922;28;20057;-65
2023/09/29 03:20:00;;;;;;;14.68;4.63;;;16.00;99.90;;;;;;5054192;28;20036;-66
2023/09/29 03:22:27;;;;;;;13.68;3.65;;;16.00;99.90;;;;;;5070914;28;20094;-65
2023/09/29 03:24:53;;;;;;;13.30;4.60;;;16.00;99.90;;;;;;5058073;28;20472;-66
2023/09/29 03:27:18;;;;;;;11.60;4.03;;;16.00;99.90;;;;;;5072448;28;20044;-65
2023/09/29 03:29:44;;;;;;;13.93;4.85;;;16.00;99.90;;;;;;5074225;28;20048;-66
2023/09/29 03:32:10;;;;;;;15.88;5.03;;;16.10;99.90;;;;;;5064481;28;20045;-66
2023/09/29 03:34:36;;;;;;;16.27;5.05;;;16.10;99.90;;;;;;5069970;28;20402;-66
2023/09/29 03:37:01;;;;;;;15.63;4.30;;;16.10;99.90;;;;;;5055536;28;20041;-66
2023/09/29 03:39:27;;;;;;;11.73;3.88;;;16.10;99.90;;;;;;5058631;28;20044;-66
2023/09/29 03:41:55;;;;;;;13.30;4.20;;;16.10;99.90;;;;;;5054664;28;20112;-66
2023/09/29 03:44:23;;;;;;;10.80;4.15;;;16.10;99.90;;;;;;5054329;28;20132;-66
2023/09/29 03:46:49;;;;;;;15.27;4.80;;;16.10;99.90;;;;;;5054245;28;20102;-65
2023/09/29 03:49:15;;;;;;;12.13;4.00;;;16.10;99.90;;;;;;5054195;28;20558;-65
2023/09/29 03:51:44;;;;;;;12.65;4.00;;;16.10;99.90;;;;;;5037351;28;20045;-66
2023/09/29 03:54:09;;;;;;;9.43;4.32;;;16.20;99.90;;;;;;5054488;28;20041;-66
2023/09/29 03:56:35;;;;;;;16.10;4.40;;;16.20;99.90;;;;;;5053220;28;20432;-66
2023/09/29 03:59:01;;;;;;;17.63;5.82;;;16.20;99.90;;;;;;5055673;28;20449;-66
2023/09/29 04:01:27;;;;;;;14.68;5.25;;;16.20;99.90;;;;;;5073682;28;20523;-66
2023/09/29 04:03:54;;;;;;;11.38;4.10;;;16.20;99.90;;;;;;5073317;28;20036;-66
2023/09/29 04:06:20;;;;;;;11.20;4.10;;;16.20;99.90;;;;;;5074762;28;20051;-66
2023/09/29 04:08:47;;;;;;;12.82;3.95;;;16.20;99.90;;;;;;5074594;28;20076;-66
2023/09/29 04:11:12;;;;;;;12.13;4.30;;;16.20;99.90;;;;;;5066864;28;20083;-66
2023/09/29 04:13:38;;;;;;;11.23;4.10;;;16.30;99.90;;;;;;5053292;28;20072;-65
2023/09/29 04:16:05;;;;;;;14.05;4.80;;;16.30;99.90;;;;;;5052747;28;20049;-66
2023/09/29 04:18:31;;;;;;;13.80;4.75;;;16.30;99.90;;;;;;5054145;28;20045;-66
2023/09/29 04:20:57;;;;;;;17.05;4.55;;;16.30;99.90;;;;;;5053417;28;20059;-65
2023/09/29 04:23:29;;;;;;;14.98;4.85;;;16.40;99.90;;;;;;5053232;28;20041;-65
2023/09/29 04:25:54;;;;;;;14.63;3.90;;;16.40;99.90;;;;;;5054091;28;20046;-65
2023/09/29 04:28:20;;;;;;;10.23;4.15;;;16.40;99.90;;;;;;5073256;28;20506;-66
2023/09/29 04:30:46;;;;;;;10.20;3.53;;;16.40;99.90;;;;;;5052612;28;20052;-65
2023/09/29 04:33:12;;;;;;;12.13;4.25;;;16.40;99.90;;;;;;5054269;28;20448;-65
2023/09/29 04:35:38;;;;;;;13.27;4.45;;;16.40;99.90;;;;;;5067817;28;20045;-65
2023/09/29 04:38:04;;;;;;;9.82;4.18;;;16.40;99.90;;;;;;5052973;28;20075;-65
2023/09/29 04:40:29;;;;;;;15.43;4.85;;;16.40;99.90;;;;;;5069334;28;20553;-65
2023/09/29 04:42:55;;;;;;;17.40;4.65;;;16.40;99.90;;;;;;5052978;28;20037;-65
2023/09/29 04:45:21;;;;;;;15.73;4.90;;;16.50;99.90;;;;;;5053474;28;20045;-65
2023/09/29 04:47:46;;;;;;;17.88;4.95;;;16.50;99.90;;;;;;5052948;28;20120;-65
2023/09/29 04:50:14;;;;;;;13.32;4.28;;;16.60;99.90;;;;;;5069274;28;20053;-65
2023/09/29 04:52:40;;;;;;;13.50;4.05;;;16.60;99.90;;;;;;5085858;28;20092;-65
2023/09/29 04:55:06;;;;;;;12.32;4.70;;;16.60;99.90;;;;;;5054398;28;20432;-65
2023/09/29 04:57:31;;;;;;;18.70;4.80;;;16.60;99.90;;;;;;5052684;28;20128;-65
2023/09/29 04:59:57;;;;;;;14.77;4.30;;;16.50;99.90;;;;;;5067261;28;20463;-65
2023/09/29 05:02:24;;;;;;;17.45;5.10;;;16.50;99.90;;;;;;5052482;28;20042;-65
2023/09/29 05:04:50;;;;;;;14.43;4.00;;;16.50;99.90;;;;;;5053824;28;20049;-65
2023/09/29 05:07:15;;;;;;;16.92;4.75;;;16.50;99.90;;;;;;5053235;28;20102;-65
2023/09/29 05:09:41;;;;;;;14.07;4.72;;;16.50;99.90;;;;;;5053696;28;20536;-66
2023/09/29 05:12:07;;;;;;;12.48;4.35;;;16.50;99.90;;;;;;5052609;28;20478;-65
2023/09/29 05:14:33;;;;;;;15.35;5.05;;;16.50;99.90;;;;;;5052766;28;20040;-66
2023/09/29 05:16:58;;;;;;;10.82;4.38;;;16.50;99.90;;;;;;5052573;28;20056;-66
2023/09/29 05:19:24;;;;;;;14.38;5.38;;;16.40;99.90;;;;;;5068274;28;20033;-66
2023/09/29 05:21:50;;;;;;;12.60;4.40;;;16.50;99.90;;;;;;5052210;28;20123;-66
2023/09/29 05:24:16;;;;;;;11.20;4.28;;;16.50;99.90;;;;;;5052376;28;20386;-66
2023/09/29 05:26:42;;;;;;;12.77;4.13;;;16.50;99.90;;;;;;5068141;28;20048;-66
2023/09/29 05:29:07;;;;;;;9.15;4.28;;;16.50;99.90;;;;;;5053367;28;20048;-65
2023/09/29 05:31:33;;;;;;;13.70;4.13;;;16.50;99.90;;;;;;5069010;28;20040;-66
2023/09/29 05:33:59;;;;;;;12.30;4.82;;;16.50;99.90;;;;;;5068436;28;20079;-65
2023/09/29 05:36:24;;;;;;;11.45;4.28;;;16.50;99.90;;;;;;5071336;28;20090;-66
2023/09/29 05:38:50;;;;;;;12.80;4.43;;;16.50;99.90;;;;;;5072088;28;20090;-66
2023/09/29 05:41:16;;;;;;;9.32;4.43;;;16.50;99.90;;;;;;5070035;28;20044;-66
2023/09/29 05:43:42;;;;;;;10.88;4.07;;;16.50;99.90;;;;;;5055140;28;20051;-66
2023/09/29 05:46:07;;;;;;;12.32;4.10;;;16.50;99.90;;;;;;5072995;28;20037;-66
2023/09/29 05:48:33;;;;;;;12.93;4.85;;;16.50;99.90;;;;;;5071244;28;20123;-66
2023/09/29 05:51:00;;;;;;;12.82;4.78;;;16.50;99.90;;;;;;5071939;28;20477;-66
2023/09/29 05:53:26;;;;;;;10.30;3.92;;;16.50;99.90;;;;;;5055193;28;20088;-65
2023/09/29 05:55:51;;;;;;;9.23;4.30;;;16.60;99.90;;;;;;5052101;28;20084;-65
2023/09/29 05:58:17;;;;;;;12.07;4.72;;;16.50;99.90;;;;;;5051548;28;20037;-66
2023/09/29 06:00:43;;;;;;;13.80;5.13;;;16.60;99.90;;;;;;5051538;28;20041;-65
2023/09/29 06:03:09;;;;;;;11.13;5.10;;;16.60;99.90;;;;;;5050283;28;20072;-65
2023/09/29 06:05:34;;;;;;;13.75;4.45;;;16.50;99.90;;;;;;5051374;28;20478;-65
2023/09/29 06:08:00;;;;;;;13.27;4.47;;;16.60;99.90;;;;;;5056458;28;20037;-66
2023/09/29 06:10:26;;;;;;;11.15;5.47;;;16.50;99.90;;;;;;5050113;28;20102;-65
2023/09/29 06:12:52;;;;;;;12.43;4.97;;;16.50;99.90;;;;;;5051808;28;20398;-66
2023/09/29 06:15:18;;;;;;;14.43;4.68;;;16.50;99.90;;;;;;5034844;28;20041;-65
2023/09/29 06:17:44;;;;;;;12.50;4.50;;;16.40;99.90;;;;;;5065553;28;20047;-66
2023/09/29 06:20:10;;;;;;;11.35;4.28;;;16.50;99.90;;;;;;5054634;28;20057;-66
2023/09/29 06:22:36;;;;;;;10.57;3.90;;;16.40;99.90;;;;;;5070951;28;20036;-67
2023/09/29 06:25:02;;;;;;;9.32;4.60;;;16.50;99.90;;;;;;5070941;28;20040;-66
2023/09/29 06:27:27;;;;;;;10.93;4.53;;;16.50;99.90;;;;;;5054306;28;20047;-65
2023/09/29 06:29:53;;;;;;;12.45;4.43;;;16.50;99.90;;;;;;5070088;28;20120;-65
2023/09/29 06:32:19;;;;;;;11.02;3.95;;;16.40;99.90;;;;;;5070793;28;20119;-65
2023/09/29 06:34:45;;;;;;;9.00;4.35;;;16.50;99.90;;;;;;5046089;28;20124;-65
2023/09/29 06:37:11;;;;;;;10.60;5.28;;;16.50;99.90;;;;;;5061790;28;20106;-66
2023/09/29 06:39:37;;;;;;;11.38;4.55;;;16.50;99.90;;;;;;5051582;28;20465;-65
2023/09/29 06:42:03;;;;;;;12.27;4.45;;;16.50;99.90;;;;;;5058367;28;20440;-65
2023/09/29 06:44:30;;;;;;;11.38;4.22;;;16.60;99.90;;;;;;5047411;28;20032;-65
2023/09/29 06:46:56;;;;;;;10.57;5.03;;;16.60;99.90;;;;;;5059816;28;20048;-65
2023/09/29 06:49:22;;;;;;;10.25;4.30;;;16.60;99.90;;;;;;5052563;28;20057;-65
2023/09/29 06:51:48;;;;;;;10.60;4.47;;;16.70;99.90;;;;;;5030650;28;20060;-65
2023/09/29 06:54:14;;;;;;;12.48;4.30;;;16.70;99.90;;;;;;5053802;28;20060;-65
2023/09/29 06:56:40;;;;;;;10.23;4.30;;;16.70;99.90;;;;;;5048377;28;20401;-65
2023/09/29 06:59:07;;;;;;;13.07;4.60;;;16.70;99.90;;;;;;5046317;28;20048;-65
2023/09/29 07:01:33;;;;;;;11.88;4.90;;;16.80;99.90;;;;;;5053974;28;20086;-65
2023/09/29 07:03:59;;;;;;;8.23;3.88;;;16.80;99.90;;;;;;5059550;28;20044;-65
2023/09/29 07:06:25;;;;;;;12.10;4.72;;;16.80;99.90;;;;;;5062556;28;20370;-65
2023/09/29 07:08:51;;;;;;;10.80;5.07;;;16.90;99.90;;;;;;5067664;28;20040;-65
2023/09/29 07:11:17;;;;;;;12.45;4.80;;;16.90;99.90;;;;;;5053592;28;20099;-65
2023/09/29 07:13:43;;;;;;;10.23;5.03;;;16.90;99.90;;;;;;5048346;28;20049;-65
2023/09/29 07:16:09;;;;;;;14.63;6.75;;;17.00;99.90;;;;;;5047852;28;20060;-65
2023/09/29 07:18:34;;;;;;;13.23;4.80;;;17.00;99.90;;;;;;5047605;28;20116;-65
2023/09/29 07:21:00;;;;;;;11.82;5.65;;;17.00;99.90;;;;;;5050926;28;20655;-65
2023/09/29 07:23:28;;;;;;;12.90;5.20;;;17.10;99.90;;;;;;5031927;28;20072;-65
2023/09/29 07:25:54;;;;;;;13.82;6.10;;;17.10;99.90;;;;;;5049688;28;20087;-65
2023/09/29 07:28:23;;;;;;;13.00;5.60;;;17.10;99.90;;;;;;5047359;28;20068;-66
2023/09/29 07:30:50;;;;;;;13.45;5.55;;;17.20;99.90;;;;;;5048032;28;20390;-65
2023/09/29 07:33:16;;;;;;;10.65;5.68;;;17.20;99.90;;;;;;5047631;28;20041;-65
2023/09/29 07:35:45;;;;;;;13.05;5.93;;;17.20;99.90;;;;;;5055864;28;20056;-65
2023/09/29 07:38:12;;;;;;;10.88;5.15;;;17.20;99.90;;;;;;5040073;28;20606;-65
2023/09/29 07:40:38;;;;;;;11.82;4.97;;;17.30;99.90;;;;;;5053150;28;20041;-66
2023/09/29 07:43:05;;;;;;;11.20;6.45;;;17.40;99.90;;;;;;5054442;28;20816;-65
2023/09/29 07:45:34;;;;;;;11.25;5.97;;;17.40;99.90;;;;;;5047019;28;20052;-66
2023/09/29 07:48:00;;;;;;;13.32;7.20;;;17.50;99.90;;;;;;5048926;28;20107;-65
2023/09/29 07:50:26;;;;;;;11.93;6.22;;;17.50;99.90;;;;;;5058695;28;20057;-65
2023/09/29 07:52:52;;;;;;;13.88;6.80;;;17.50;99.90;;;;;;5032903;28;20103;-66
2023/09/29 07:55:18;;;;;;;12.38;6.63;;;17.60;99.90;;;;;;5040351;28;20075;-66
2023/09/29 07:57:47;;;;;;;17.38;7.25;;;17.60;99.90;;;;;;5052132;28;20041;-66
2023/09/29 08:00:15;;;;;;;13.63;6.55;;;17.60;99.90;;;;;;5031303;28;20044;-65
2023/09/29 08:02:43;;;;;;;13.68;6.30;;;17.60;99.90;;;;;;5030404;28;20040;-65
2023/09/29 08:05:12;;;;;;;14.60;6.78;;;17.70;99.90;;;;;;5059322;28;20115;-65
2023/09/29 08:07:38;;;;;;;16.00;6.63;;;17.80;99.90;;;;;;5065352;28;20044;-65
2023/09/29 08:10:04;;;;;;;15.88;7.55;;;17.70;99.90;;;;;;5084361;28;20148;-66
2023/09/29 08:12:30;;;;;;;11.98;5.93;;;17.80;99.90;;;;;;5051603;28;20818;-66
2023/09/29 08:14:55;;;;;;;14.52;6.65;;;17.90;99.90;;;;;;5051497;28;20041;-66
2023/09/29 08:17:21;;;;;;;16.60;6.82;;;17.90;99.90;;;;;;5051837;28;20080;-66
2023/09/29 08:19:48;;;;;;;14.75;7.72;;;17.90;99.90;;;;;;5051100;28;20048;-66
2023/09/29 08:22:13;;;;;;;13.25;7.40;;;18.00;99.90;;;;;;5050094;28;20128;-66
2023/09/29 08:24:39;;;;;;;15.68;7.65;;;18.00;99.90;;;;;;5070357;28;20127;-66
2023/09/29 08:27:06;;;;;;;15.15;8.20;;;18.10;99.90;;;;;;5071515;28;20044;-66
2023/09/29 08:29:32;;;;;;;14.95;7.70;;;18.20;99.90;;;;;;5052097;28;20040;-66
2023/09/29 08:31:59;;;;;;;17.83;7.82;;;18.20;99.90;;;;;;5051432;28;20048;-66
2023/09/29 08:34:27;;;;;;;14.00;6.97;;;18.30;99.90;;;;;;5058723;28;20080;-66
2023/09/29 08:36:53;;;;;;;14.75;7.00;;;18.30;99.90;;;;;;5050933;28;20045;-63
2023/09/29 08:39:19;;;;;;;17.75;8.63;;;18.40;99.90;;;;;;5061761;28;20056;-66
2023/09/29 08:41:53;;;;;;;20.10;9.18;;;18.40;99.90;;;;;;5063442;28;20055;-66
2023/09/29 08:44:21;;;;;;;17.42;8.43;;;18.40;99.90;;;;;;5056751;28;20090;-66
2023/09/29 08:46:51;;;;;;;14.27;7.00;;;18.40;99.90;;;;;;5050299;28;20460;-66
2023/09/29 08:49:17;;;;;;;17.10;7.20;;;18.50;99.90;;;;;;5051419;28;20052;-66
2023/09/29 08:51:47;;;;;;;12.05;7.18;;;18.60;99.90;;;;;;5058931;28;20486;-66
2023/09/29 08:54:17;;;;;;;13.50;7.00;;;18.60;99.90;;;;;;5050553;28;20041;-66
2023/09/29 08:56:43;;;;;;;12.73;6.65;;;18.70;99.90;;;;;;5085039;28;20474;-66
2023/09/29 08:59:09;;;;;;;13.23;6.63;;;18.70;99.90;;;;;;5049505;28;20073;-66
2023/09/29 09:01:35;;;;;;;11.57;6.18;;;18.80;99.90;;;;;;5033941;28;20148;-66
2023/09/29 09:04:01;;;;;;;12.48;6.32;;;18.90;99.90;;;;;;5053989;28;20044;-66
2023/09/29 09:06:27;;;;;;;10.32;5.70;;;18.90;99.90;;;;;;5049169;28;20055;-66
2023/09/29 09:08:54;;;;;;;11.05;5.32;;;19.00;99.90;;;;;;5051125;28;20040;-66
2023/09/29 09:11:20;;;;;;;10.48;4.75;;;19.10;99.90;;;;;;5055996;28;20036;-66
2023/09/29 09:13:59;;;;;;;15.32;5.38;;;19.10;99.90;;;;;;5059700;28;20045;-66
2023/09/29 09:16:31;;;;;;;10.57;5.00;;;19.10;99.90;;;;;;5049407;28;20067;-66
2023/09/29 09:19:09;;;;;;;11.15;4.60;;;19.20;99.90;;;;;;5060030;28;20090;-66
2023/09/29 09:21:35;;;;;;;10.90;4.78;;;19.30;99.90;;;;;;5069539;28;20370;-66
2023/09/29 09:24:00;;;;;;;13.20;4.80;;;19.30;99.90;;;;;;5052688;28;20048;-66
2023/09/29 09:26:28;;;;;;;13.00;4.35;;;19.30;99.90;;;;;;5051259;28;20135;-65
2023/09/29 09:28:54;;;;;;;8.63;3.53;;;19.40;99.90;;;;;;5052312;28;20127;-66
2023/09/29 09:31:20;;;;;;;7.30;3.83;;;19.40;99.90;;;;;;5051918;28;20129;-66
2023/09/29 09:33:49;;;;;;;8.07;3.67;;;19.50;99.90;;;;;;5052435;28;20139;-66
2023/09/29 09:36:15;;;;;;;8.60;4.05;;;19.50;99.90;;;;;;5035426;28;20120;-66
2023/09/29 09:38:41;;;;;;;12.32;4.63;;;19.60;99.90;;;;;;5053143;28;20589;-66
2023/09/29 09:41:09;;;;;;;7.50;3.35;;;19.80;99.90;;;;;;5034721;28;20366;-66
2023/09/29 09:43:35;;;;;;;9.57;3.72;;;19.80;99.90;;;;;;5051721;28;20077;-65
2023/09/29 09:46:06;;;;;;;6.40;3.10;;;19.90;99.90;;;;;;5051965;28;20435;-66
2023/09/29 09:48:55;;;;;;;8.93;4.60;;;19.90;99.90;;;;;;5050807;28;20044;-63
2023/09/29 09:51:34;;;;;;;7.13;3.65;;;20.00;99.90;;;;;;5036355;28;20406;-63
2023/09/29 09:54:08;;;;;;;6.85;3.13;;;20.20;99.90;;;;;;5051032;28;20056;-64
2023/09/29 09:57:00;;;;;;;7.82;4.20;;;20.10;99.90;;;;;;5051368;28;20041;-63
2023/09/29 09:59:27;;;;;;;9.00;3.80;;;20.10;99.90;;;;;;5054980;28;20039;-63
2023/09/29 10:01:55;;;;;;;7.35;3.33;;;20.10;99.90;;;;;;5050682;28;20072;-63
2023/09/29 10:04:26;;;;;;;5.45;3.05;;;20.10;99.90;;;;;;5051384;28;20055;-64
2023/09/29 10:06:55;;;;;;;6.97;3.65;;;20.00;99.90;;;;;;5051274;28;20048;-64
2023/09/29 10:09:21;;;;;;;8.38;4.30;;;20.00;99.90;;;;;;5050765;28;20049;-64
2023/09/29 10:12:00;;;;;;;8.77;3.38;;;19.90;99.90;;;;;;5053306;28;20051;-63
2023/09/29 10:14:27;;;;;;;8.88;3.70;;;19.90;99.90;;;;;;5058840;28;20053;-63
2023/09/29 10:17:03;;;;;;;8.98;3.80;;;19.90;99.90;;;;;;5040116;28;20040;-63
2023/09/29 10:19:39;;;;;;;10.98;3.72;;;19.90;99.90;;;;;;5031114;28;20042;-63
2023/09/29 10:22:06;;;;;;;11.55;4.03;;;20.00;99.90;;;;;;5050453;28;20040;-65
2023/09/29 10:24:33;;;;;;;8.32;3.78;;;20.00;99.90;;;;;;5050980;28;20481;-64
2023/09/29 10:26:59;;;;;;;9.55;3.63;;;20.00;99.90;;;;;;5061065;28;20523;-64
2023/09/29 10:29:30;;;;;;;10.43;3.88;;;20.00;99.90;;;;;;5053408;28;20040;-64
2023/09/29 10:32:15;;;;;;;15.07;6.03;;;20.00;99.90;;;;;;5071053;28;20485;-62
2023/09/29 10:34:41;;;;;;;47.95;18.50;;;20.10;99.90;;;;;;5070920;28;20119;-63
2023/09/29 10:37:09;;;;;;;33.63;12.70;;;20.10;99.90;;;;;;5070025;28;20080;-62
2023/09/29 10:39:36;;;;;;;37.38;19.42;;;19.80;99.90;;;;;;5072104;28;20036;-66
2023/09/29 10:42:15;;;;;;;16.15;7.93;;;19.20;99.90;;;;;;5071195;28;20048;-61
2023/09/29 10:44:56;;;;;;;15.60;5.82;;;19.00;99.90;;;;;;5061351;28;20051;-60
2023/09/29 10:47:36;;;;;;;25.58;9.88;;;19.00;99.90;;;;;;5051153;28;20052;-63
2023/09/29 10:50:06;;;;;;;61.97;28.05;;;19.00;99.90;;;;;;5051398;28;20096;-59
2023/09/29 10:52:32;;;;;;;21.20;8.50;;;18.90;99.90;;;;;;5050822;28;20123;-57
2023/09/29 10:54:59;;;;;;;48.40;21.20;;;18.80;99.90;;;;;;5052357;28;20401;-63
2023/09/29 10:57:28;;;;;;;28.25;12.77;;;19.00;99.90;;;;;;5051286;28;20432;-63
2023/09/29 10:59:59;;;;;;;29.27;13.35;;;18.80;99.90;;;;;;5034409;28;20436;-59
2023/09/29 11:02:35;;;;;;;10.02;5.00;;;18.90;99.90;;;;;;5051449;28;20053;-60
2023/09/29 11:05:06;;;;;;;53.60;21.02;;;19.00;99.90;;;;;;5050478;28;20060;-60
2023/09/29 11:07:52;;;;;;;46.88;20.95;;;18.90;99.90;;;;;;5034478;28;20041;-75
2023/09/29 11:10:19;;;;;;;11.10;4.88;;;19.00;99.90;;;;;;5052765;28;20033;-60
2023/09/29 11:12:48;;;;;;;10.10;5.10;;;19.00;99.90;;;;;;5060265;28;20036;-60
2023/09/29 11:15:15;;;;;;;16.98;6.85;;;19.10;99.90;;;;;;5070662;28;20045;-60
2023/09/29 11:17:44;;;;;;;4.30;1.88;;;19.00;99.90;;;;;;5071845;28;20393;-59
2023/09/29 11:20:16;;;;;;;4.13;1.40;;;18.70;99.90;;;;;;5064585;28;20032;-60
2023/09/29 11:22:45;;;;;;;5.28;1.67;;;18.40;99.90;;;;;;5050344;28;20124;-61
2023/09/29 11:25:19;;;;;;;5.45;1.30;;;18.20;99.90;;;;;;5051121;28;20390;-62
2023/09/29 11:27:52;;;;;;;7.00;2.13;;;18.10;99.90;;;;;;5050583;28;20041;-62
2023/09/29 11:30:24;;;;;;;4.05;1.42;;;17.90;99.90;;;;;;5051462;28;20036;-64
2023/09/29 11:32:51;;;;;;;4.03;1.30;;;17.80;99.90;;;;;;5049577;28;20052;-65
2023/09/29 11:35:18;;;;;;;7.05;1.58;;;17.80;99.90;;;;;;5056182;28;20043;-67
2023/09/29 11:37:45;;;;;;;5.60;1.50;;;17.80;99.90;;;;;;5051623;28;20095;-65
2023/09/29 11:40:11;;;;;;;7.80;1.98;;;17.70;99.90;;;;;;5051655;28;20041;-66
2023/09/29 11:42:40;;;;;;;4.03;1.30;;;17.70;99.90;;;;;;5055406;28;20056;-68
2023/09/29 11:45:10;;;;;;;9.32;3.50;;;17.60;99.90;;;;;;5037741;28;20052;-67
2023/09/29 11:47:40;;;;;;;21.88;7.82;;;17.50;99.90;;;;;;5036695;28;20041;-73
2023/09/29 11:50:08;;;;;;;4.80;1.77;;;17.50;99.90;;;;;;5054144;28;20091;-63
2023/09/29 11:52:35;;;;;;;9.80;3.33;;;17.50;99.90;;;;;;5055078;28;20052;-67
2023/09/29 11:55:05;;;;;;;24.50;10.00;;;17.50;99.90;;;;;;5062259;28;20064;-65
2023/09/29 11:57:31;;;;;;;17.15;7.15;;;17.50;99.90;;;;;;5037403;28;20044;-67
2023/09/29 11:59:57;;;;;;;18.83;6.22;;;17.40;99.90;;;;;;5053967;28;20033;-66
2023/09/29 12:02:22;;;;;;;16.42;4.43;;;17.40;99.90;;;;;;5053384;28;20409;-66
2023/09/29 12:04:48;;;;;;;8.75;2.25;;;17.40;99.90;;;;;;5037001;28;20124;-61
2023/09/29 12:07:14;;;;;;;7.25;2.22;;;17.40;99.90;;;;;;5054066;28;20045;-63
2023/09/29 12:09:39;;;;;;;6.82;2.15;;;17.20;99.90;;;;;;5053296;28;20393;-61
2023/09/29 12:12:05;;;;;;;5.00;1.60;;;17.20;99.90;;;;;;5053982;28;20056;-63
2023/09/29 12:14:31;;;;;;;7.20;2.00;;;17.20;99.90;;;;;;5053736;28;20120;-63
2023/09/29 12:16:58;;;;;;;4.75;1.58;;;17.20;99.90;;;;;;5053334;28;20056;-66
2023/09/29 12:19:24;;;;;;;6.28;1.52;;;17.10;99.90;;;;;;5037187;28;20037;-66
2023/09/29 12:21:50;;;;;;;3.63;1.13;;;17.10;99.90;;;;;;5052950;28;20124;-65
2023/09/29 12:24:16;;;;;;;4.15;1.75;;;16.90;99.90;;;;;;5039402;28;20128;-65
2023/09/29 12:26:46;;;;;;;3.78;1.13;;;16.80;99.90;;;;;;5051581;28;20087;-65
2023/09/29 12:29:15;;;;;;;4.13;1.10;;;16.70;99.90;;;;;;5030203;28;20049;-65
2023/09/29 12:31:41;;;;;;;8.00;1.63;;;16.80;99.90;;;;;;5064428;28;20050;-65
2023/09/29 12:34:06;;;;;;;6.45;1.45;;;16.70;99.90;;;;;;5064692;28;20045;-65
2023/09/29 12:36:32;;;;;;;5.45;1.20;;;16.60;99.90;;;;;;5082041;28;20047;-66
2023/09/29 12:38:58;;;;;;;5.70;1.25;;;16.70;99.90;;;;;;5072241;28;20072;-66